createdAt,value
2022-10-04T00:01:12.457Z,100513.40
2022-10-04T00:03:51.315Z,100512.20
2022-10-04T00:06:28.982Z,100513.60
2022-10-04T00:09:09.228Z,100516.60
2022-10-04T00:11:49.229Z,100519.00
2022-10-04T00:14:30.592Z,100514.00
2022-10-04T00:17:15.140Z,100512.80
2022-10-04T00:19:52.351Z,100514.00
2022-10-04T00:22:32.082Z,100512.00
2022-10-04T00:25:36.885Z,100511.80
2022-10-04T00:28:45.807Z,100511.60
2022-10-04T00:31:26.661Z,100506.60
2022-10-04T00:34:49.167Z,100504.20
2022-10-04T00:37:25.490Z,100501.60
2022-10-04T00:40:11.029Z,100507.80
2022-10-04T00:43:01.566Z,100499.20
2022-10-04T00:45:42.594Z,100498.00
2022-10-04T00:48:35.818Z,100500.80
2022-10-04T00:51:24.523Z,100509.00
2022-10-04T00:54:13.759Z,100508.00
2022-10-04T00:56:52.458Z,100506.20
2022-10-04T00:59:39.667Z,100501.00
2022-10-04T01:02:22.229Z,100499.80
2022-10-04T01:05:01.952Z,100505.40
2022-10-04T01:07:44.015Z,100506.80
2022-10-04T01:10:23.686Z,100504.00
2022-10-04T01:13:06.839Z,100509.60
2022-10-04T01:15:55.637Z,100502.40
2022-10-04T01:18:37.972Z,100507.60
2022-10-04T01:21:28.214Z,100508.60
2022-10-04T01:24:24.407Z,100507.80
2022-10-04T01:26:58.479Z,100510.00
2022-10-04T01:29:34.177Z,100515.00
2022-10-04T01:32:08.062Z,100514.20
2022-10-04T01:34:45.027Z,100506.40
2022-10-04T01:37:19.278Z,100509.00
2022-10-04T01:39:53.372Z,100509.80
2022-10-04T01:42:32.640Z,100514.20
2022-10-04T01:45:20.521Z,100509.40
2022-10-04T01:48:01.197Z,100511.60
2022-10-04T01:50:45.283Z,100513.40
2022-10-04T01:53:25.731Z,100512.80
2022-10-04T01:56:10.230Z,100513.60
2022-10-04T01:58:50.321Z,100511.60
2022-10-04T02:01:32.403Z,100510.40
2022-10-04T02:04:16.286Z,100509.60
2022-10-04T02:06:57.549Z,100509.80
2022-10-04T02:09:40.057Z,100510.20
2022-10-04T02:12:19.000Z,100511.60
2022-10-04T02:14:56.516Z,100508.60
2022-10-04T02:17:33.455Z,100512.60
2022-10-04T02:20:16.200Z,100508.80
2022-10-04T02:22:56.548Z,100507.20
2022-10-04T02:25:30.984Z,100506.20
2022-10-04T02:28:05.543Z,100506.00
2022-10-04T02:31:06.363Z,100510.20
2022-10-04T02:33:46.311Z,100507.40
2022-10-04T02:36:25.090Z,100505.20
2022-10-04T02:39:06.390Z,100511.20
2022-10-04T02:41:47.689Z,100509.20
2022-10-04T02:44:29.279Z,100510.40
2022-10-04T02:47:15.240Z,100507.40
2022-10-04T02:49:53.492Z,100500.40
2022-10-04T02:52:35.718Z,100500.60
2022-10-04T02:55:21.442Z,100504.00
2022-10-04T02:57:55.798Z,100503.20
2022-10-04T03:00:32.929Z,100501.20
2022-10-04T03:03:25.412Z,100498.00
2022-10-04T03:06:06.558Z,100505.60
2022-10-04T03:08:49.628Z,100499.00
2022-10-04T03:11:31.843Z,100502.80
2022-10-04T03:14:10.875Z,100500.60
2022-10-04T03:16:49.247Z,100498.80
2022-10-04T03:19:26.947Z,100496.80
2022-10-04T03:22:08.236Z,100505.60
2022-10-04T03:24:50.196Z,100514.20
2022-10-04T03:27:30.123Z,100521.60
2022-10-04T03:30:05.249Z,100522.20
2022-10-04T03:32:40.692Z,100524.20
2022-10-04T03:35:29.720Z,100522.00
2022-10-04T03:38:06.893Z,100523.60
2022-10-04T03:40:51.572Z,100526.40
2022-10-04T03:43:31.768Z,100529.20
2022-10-04T03:46:07.545Z,100528.40
2022-10-04T03:48:47.770Z,100527.40
2022-10-04T03:51:26.317Z,100526.60
2022-10-04T03:54:03.746Z,100528.20
2022-10-04T03:56:39.736Z,100526.60
2022-10-04T03:59:20.184Z,100535.80
2022-10-04T04:02:07.673Z,100534.60
2022-10-04T04:05:00.581Z,100530.80
2022-10-04T04:07:44.305Z,100530.40
2022-10-04T04:10:26.191Z,100533.20
2022-10-04T04:13:08.746Z,100530.00
2022-10-04T04:15:43.520Z,100527.80
2022-10-04T04:18:22.318Z,100527.80
2022-10-04T04:21:01.257Z,100526.20
2022-10-04T04:23:39.058Z,100528.20
2022-10-04T04:26:28.352Z,100524.60
2022-10-04T04:29:12.408Z,100526.80
2022-10-04T04:31:55.039Z,100533.40
2022-10-04T04:34:33.500Z,100534.40
2022-10-04T04:37:13.423Z,100534.60
2022-10-04T04:39:52.356Z,100540.60
2022-10-04T04:42:32.928Z,100548.80
2022-10-04T04:45:17.377Z,100547.20
2022-10-04T04:47:56.182Z,100547.40
2022-10-04T04:50:34.115Z,100552.00
2022-10-04T04:53:14.430Z,100549.80
2022-10-04T04:56:10.631Z,100553.40
2022-10-04T04:58:48.993Z,100554.00
2022-10-04T05:01:30.488Z,100552.60
2022-10-04T05:04:19.752Z,100546.00
2022-10-04T05:07:07.111Z,100546.00
2022-10-04T05:09:41.645Z,100554.20
2022-10-04T05:12:25.329Z,100560.60
2022-10-04T05:15:01.471Z,100566.20
2022-10-04T05:17:38.397Z,100562.20
2022-10-04T05:20:16.422Z,100564.40
2022-10-04T05:22:55.225Z,100571.00
2022-10-04T05:25:34.890Z,100563.40
2022-10-04T05:28:15.238Z,100576.00
2022-10-04T05:31:03.420Z,100574.40
2022-10-04T05:33:51.579Z,100580.20
2022-10-04T05:37:13.923Z,100586.80
2022-10-04T05:39:59.691Z,100589.40
2022-10-04T05:42:45.405Z,100592.60
2022-10-04T05:45:26.076Z,100594.80
2022-10-04T05:48:02.387Z,100595.80
2022-10-04T05:50:41.707Z,100602.80
2022-10-04T05:53:33.166Z,100602.60
2022-10-04T05:56:27.220Z,100603.00
2022-10-04T05:59:17.283Z,100601.00
2022-10-04T06:02:05.373Z,100602.80
2022-10-04T06:04:57.058Z,100605.20
2022-10-04T06:07:41.345Z,100606.20
2022-10-04T06:10:45.979Z,100612.00
2022-10-04T06:13:59.513Z,100618.60
2022-10-04T06:16:57.461Z,100616.60
2022-10-04T06:20:10.551Z,100625.00
2022-10-04T06:22:52.186Z,100623.80
2022-10-04T06:25:35.945Z,100626.20
2022-10-04T06:28:22.052Z,100621.60
2022-10-04T06:31:30.235Z,100616.60
2022-10-04T06:34:37.043Z,100618.80
2022-10-04T06:37:36.566Z,100626.40
2022-10-04T06:41:09.201Z,100625.00
2022-10-04T06:44:04.788Z,100626.80
2022-10-04T06:46:49.508Z,100623.20
2022-10-04T06:49:45.458Z,100625.60
2022-10-04T06:52:56.954Z,100625.80
2022-10-04T06:56:03.072Z,100638.20
2022-10-04T06:59:30.052Z,100640.60
2022-10-04T07:02:14.566Z,100644.40
2022-10-04T07:05:09.330Z,100648.80
2022-10-04T07:07:50.587Z,100651.40
2022-10-04T07:10:39.728Z,100654.00
2022-10-04T07:13:40.438Z,100655.60
2022-10-04T07:16:34.056Z,100658.00
2022-10-04T07:19:31.427Z,100659.00
2022-10-04T07:22:20.504Z,100664.80
2022-10-04T07:25:18.006Z,100666.40
2022-10-04T07:28:19.534Z,100665.20
2022-10-04T07:31:03.752Z,100668.60
2022-10-04T07:33:46.280Z,100665.20
2022-10-04T07:36:28.020Z,100665.00
2022-10-04T07:39:11.812Z,100658.80
2022-10-04T07:41:55.414Z,100661.00
2022-10-04T07:44:39.710Z,100661.60
2022-10-04T07:47:25.898Z,100671.60
2022-10-04T07:50:16.433Z,100665.80
2022-10-04T07:53:08.567Z,100668.80
2022-10-04T07:55:57.039Z,100666.60
2022-10-04T07:58:53.394Z,100667.40
2022-10-04T08:01:39.190Z,100663.00
2022-10-04T08:04:41.723Z,100666.00
2022-10-04T08:07:28.184Z,100672.60
2022-10-04T08:10:16.035Z,100673.80
2022-10-04T08:13:00.263Z,100682.80
2022-10-04T08:15:42.812Z,100687.20
2022-10-04T08:18:44.649Z,100680.00
2022-10-04T08:21:31.797Z,100685.40
2022-10-04T08:24:22.061Z,100690.20
2022-10-04T08:27:17.215Z,100696.40
2022-10-04T08:30:12.184Z,100692.80
2022-10-04T08:33:09.088Z,100696.60
2022-10-04T08:35:50.624Z,100703.60
2022-10-04T08:38:45.557Z,100706.40
2022-10-04T08:42:29.146Z,100702.60
2022-10-04T08:46:04.192Z,100707.20
2022-10-04T08:49:26.091Z,100701.40
2022-10-04T08:52:49.749Z,100709.40
2022-10-04T08:56:03.204Z,100707.40
2022-10-04T08:59:13.329Z,100699.00
2022-10-04T09:02:49.371Z,100705.80
2022-10-04T09:06:14.628Z,100700.40
2022-10-04T09:09:46.645Z,100702.40
2022-10-04T09:12:44.397Z,100705.00
2022-10-04T09:15:52.075Z,100714.20
2022-10-04T09:19:00.016Z,100720.00
2022-10-04T09:22:01.438Z,100715.20
2022-10-04T09:25:21.488Z,100712.60
2022-10-04T09:28:42.353Z,100708.40
2022-10-04T09:32:09.270Z,100713.80
2022-10-04T09:35:12.468Z,100716.20
2022-10-04T09:38:11.304Z,100714.20
2022-10-04T09:41:06.826Z,100714.80
2022-10-04T09:44:23.400Z,100706.80
2022-10-04T09:47:37.761Z,100705.60
2022-10-04T09:50:50.127Z,100711.00
2022-10-04T09:53:53.150Z,100714.00
2022-10-04T09:57:17.104Z,100714.40
2022-10-04T10:00:10.869Z,100713.00
2022-10-04T10:03:18.870Z,100708.00
2022-10-04T10:06:28.370Z,100710.60
2022-10-04T10:09:47.676Z,100702.20
2022-10-04T10:13:17.102Z,100708.20
2022-10-04T10:16:06.850Z,100717.00
2022-10-04T10:19:02.156Z,100724.60
2022-10-04T10:22:11.022Z,100724.60
2022-10-04T10:25:23.197Z,100726.00
2022-10-04T10:28:25.338Z,100730.20
2022-10-04T10:31:43.565Z,100727.20
2022-10-04T10:35:09.053Z,100723.80
2022-10-04T10:38:04.473Z,100733.20
2022-10-04T10:41:00.469Z,100735.00
2022-10-04T10:44:02.236Z,100733.00
2022-10-04T10:46:58.624Z,100731.40
2022-10-04T10:49:57.432Z,100726.00
2022-10-04T10:53:30.135Z,100730.00
2022-10-04T10:56:35.827Z,100729.40
2022-10-04T11:00:15.319Z,100735.80
2022-10-04T11:03:32.352Z,100735.20
2022-10-04T11:06:41.878Z,100736.20
2022-10-04T11:09:33.364Z,100736.40
2022-10-04T11:13:10.504Z,100728.00
2022-10-04T11:16:22.292Z,100725.20
2022-10-04T11:20:11.305Z,100730.20
2022-10-04T11:23:58.046Z,100738.00
2022-10-04T11:27:01.248Z,100735.80
2022-10-04T11:30:04.137Z,100738.60
2022-10-04T11:33:37.943Z,100739.60
2022-10-04T11:36:44.969Z,100742.40
2022-10-04T11:40:04.073Z,100742.80
2022-10-04T11:43:11.825Z,100750.40
2022-10-04T11:46:36.223Z,100761.00
2022-10-04T11:49:35.779Z,100767.40
2022-10-04T11:53:03.504Z,100761.80
2022-10-04T11:56:17.538Z,100766.40
2022-10-04T11:59:11.460Z,100768.00
2022-10-04T12:02:42.568Z,100764.00
2022-10-04T12:06:04.701Z,100765.00
2022-10-04T12:08:53.806Z,100760.20
2022-10-04T12:12:23.057Z,100756.20
2022-10-04T12:15:49.458Z,100753.40
2022-10-04T12:18:52.693Z,100746.00
2022-10-04T12:21:49.300Z,100740.80
2022-10-04T12:25:13.441Z,100737.80
2022-10-04T12:28:20.196Z,100736.20
2022-10-04T12:31:23.263Z,100741.60
2022-10-04T12:34:16.147Z,100746.80
2022-10-04T12:37:23.896Z,100752.40
2022-10-04T12:40:21.790Z,100762.40
2022-10-04T12:43:10.330Z,100765.40
2022-10-04T12:45:59.435Z,100758.00
2022-10-04T12:48:49.198Z,100750.40
2022-10-04T12:51:45.459Z,100742.60
2022-10-04T12:54:39.542Z,100739.20
2022-10-04T12:57:47.749Z,100736.60
2022-10-04T13:00:25.790Z,100741.80
2022-10-04T13:03:30.886Z,100733.40
2022-10-04T13:06:19.955Z,100739.40
2022-10-04T13:09:09.491Z,100740.60
2022-10-04T13:12:09.031Z,100745.80
2022-10-04T13:15:10.274Z,100744.60
2022-10-04T13:18:03.538Z,100750.20
2022-10-04T13:21:03.338Z,100745.20
2022-10-04T13:23:55.886Z,100753.80
2022-10-04T13:26:49.342Z,100755.80
2022-10-04T13:29:34.215Z,100755.80
2022-10-04T13:32:19.123Z,100759.40
2022-10-04T13:35:04.041Z,100756.00
2022-10-04T13:37:53.412Z,100754.60
2022-10-04T13:40:57.269Z,100758.60
2022-10-04T13:44:08.497Z,100759.60
2022-10-04T13:47:01.036Z,100764.60
2022-10-04T13:50:00.284Z,100764.40
2022-10-04T13:53:06.144Z,100762.20
2022-10-04T13:56:10.633Z,100764.40
2022-10-04T13:58:54.738Z,100761.20
2022-10-04T14:02:12.731Z,100763.80
2022-10-04T14:05:39.890Z,100768.80
2022-10-04T14:08:57.304Z,100771.20
2022-10-04T14:12:19.227Z,100768.60
2022-10-04T14:15:53.299Z,100768.20
2022-10-04T14:19:09.234Z,100764.40
2022-10-04T14:22:45.767Z,100767.60
2022-10-04T14:26:07.570Z,100770.60
2022-10-04T14:29:11.163Z,100770.80
2022-10-04T14:32:24.285Z,100769.80
2022-10-04T14:35:13.940Z,100779.40
2022-10-04T14:38:49.050Z,100782.80
2022-10-04T14:42:04.785Z,100784.20
2022-10-04T14:45:08.428Z,100784.20
2022-10-04T14:48:33.947Z,100782.80
2022-10-04T14:51:48.848Z,100782.40
2022-10-04T14:54:42.511Z,100780.60
2022-10-04T14:57:39.733Z,100781.40
2022-10-04T15:00:31.463Z,100784.00
2022-10-04T15:03:40.753Z,100786.80
2022-10-04T15:06:26.194Z,100794.60
2022-10-04T15:09:52.097Z,100791.40
2022-10-04T15:13:10.502Z,100790.60
2022-10-04T15:16:13.974Z,100795.00
2022-10-04T15:19:03.023Z,100789.80
2022-10-04T15:21:53.141Z,100798.80
2022-10-04T15:24:46.693Z,100795.40
2022-10-04T15:27:51.705Z,100801.00
2022-10-04T15:30:46.903Z,100799.40
2022-10-04T15:33:45.650Z,100807.60
2022-10-04T15:36:57.921Z,100809.40
2022-10-04T15:40:23.039Z,100815.20
2022-10-04T15:43:28.145Z,100807.80
2022-10-04T15:46:49.205Z,100809.40
2022-10-04T15:50:21.771Z,100815.20
2022-10-04T15:53:27.408Z,100826.00
2022-10-04T15:56:42.349Z,100830.20
2022-10-04T15:59:54.016Z,100835.00
2022-10-04T16:03:11.530Z,100838.80
2022-10-04T16:06:03.452Z,100845.00
2022-10-04T16:09:14.111Z,100847.60
2022-10-04T16:12:20.405Z,100847.80
2022-10-04T16:15:02.217Z,100857.20
2022-10-04T16:18:16.557Z,100852.40
2022-10-04T16:21:17.486Z,100857.00
2022-10-04T16:24:40.281Z,100861.40
2022-10-04T16:27:58.462Z,100868.80
2022-10-04T16:30:41.348Z,100873.80
2022-10-04T16:33:38.522Z,100872.60
2022-10-04T16:36:21.526Z,100884.40
2022-10-04T16:39:20.047Z,100884.00
2022-10-04T16:42:09.888Z,100888.20
2022-10-04T16:44:59.352Z,100889.40
2022-10-04T16:47:39.716Z,100897.40
2022-10-04T16:50:35.751Z,100899.40
2022-10-04T16:53:32.217Z,100897.20
2022-10-04T16:56:18.052Z,100900.00
2022-10-04T16:59:13.524Z,100899.80
2022-10-04T17:02:36.051Z,100902.60
2022-10-04T17:05:56.183Z,100902.40
2022-10-04T17:08:54.704Z,100909.80
2022-10-04T17:11:44.190Z,100908.80
2022-10-04T17:15:08.306Z,100908.00
2022-10-04T17:17:52.390Z,100906.60
2022-10-04T17:20:47.303Z,100908.40
2022-10-04T17:23:59.748Z,100908.20
2022-10-04T17:26:51.727Z,100906.80
2022-10-04T17:29:47.065Z,100912.20
2022-10-04T17:32:40.867Z,100915.00
2022-10-04T17:36:01.866Z,100910.40
2022-10-04T17:38:48.479Z,100916.80
2022-10-04T17:41:50.240Z,100921.00
2022-10-04T17:44:45.409Z,100924.80
2022-10-04T17:47:48.472Z,100922.40
2022-10-04T17:50:49.245Z,100919.00
2022-10-04T17:53:51.652Z,100917.40
2022-10-04T17:56:36.384Z,100924.80
2022-10-04T17:59:19.395Z,100933.40
2022-10-04T18:02:04.626Z,100934.20
2022-10-04T18:04:52.154Z,100935.40
2022-10-04T18:07:35.218Z,100943.60
2022-10-04T18:10:30.994Z,100937.40
2022-10-04T18:13:16.749Z,100941.40
2022-10-04T18:16:00.856Z,100942.80
2022-10-04T18:18:44.551Z,100949.20
2022-10-04T18:21:30.456Z,100954.00
2022-10-04T18:24:24.233Z,100954.60
2022-10-04T18:27:10.612Z,100960.80
2022-10-04T18:30:00.750Z,100962.00
2022-10-04T18:32:40.292Z,100964.80
2022-10-04T18:35:29.368Z,100968.60
2022-10-04T18:38:29.251Z,100976.20
2022-10-04T18:41:14.110Z,100974.20
2022-10-04T18:44:07.375Z,100977.40
2022-10-04T18:46:48.767Z,100978.80
2022-10-04T18:49:29.520Z,100982.60
2022-10-04T18:52:25.092Z,100981.20
2022-10-04T18:55:19.733Z,100982.80
2022-10-04T18:58:29.067Z,100985.40
2022-10-04T19:01:40.499Z,100982.20
2022-10-04T19:04:23.830Z,100986.40
2022-10-04T19:07:07.823Z,100984.40
2022-10-04T19:10:10.912Z,100987.00
2022-10-04T19:13:04.262Z,100990.80
2022-10-04T19:16:05.335Z,100988.60
2022-10-04T19:19:15.012Z,100995.80
2022-10-04T19:22:02.039Z,100998.00
2022-10-04T19:25:18.193Z,100992.40
2022-10-04T19:28:04.106Z,100988.60
2022-10-04T19:31:08.079Z,100991.60
2022-10-04T19:33:52.297Z,100992.40
2022-10-04T19:36:48.509Z,100988.60
2022-10-04T19:39:43.552Z,100992.40
2022-10-04T19:42:30.361Z,100991.80
2022-10-04T19:45:25.079Z,100994.20
2022-10-04T19:48:02.833Z,100987.60
2022-10-04T19:50:45.400Z,100990.80
2022-10-04T19:53:25.477Z,100993.80
2022-10-04T19:56:02.936Z,100990.60
2022-10-04T19:58:44.627Z,100998.60
2022-10-04T20:01:21.541Z,101004.20
2022-10-04T20:04:10.260Z,101011.60
2022-10-04T20:06:51.814Z,101007.20
2022-10-04T20:09:52.527Z,101009.00
2022-10-04T20:12:42.992Z,101011.20
2022-10-04T20:15:47.568Z,101010.60
2022-10-04T20:19:01.330Z,101007.40
2022-10-04T20:21:36.390Z,101011.40
2022-10-04T20:24:41.082Z,101020.60
2022-10-04T20:28:03.479Z,101023.20
2022-10-04T20:30:58.790Z,101013.40
2022-10-04T20:33:53.939Z,101007.40
2022-10-04T20:36:57.208Z,101003.80
2022-10-04T20:40:03.941Z,101001.60
2022-10-04T20:42:42.478Z,101002.80
2022-10-04T20:45:30.531Z,101005.60
2022-10-04T20:48:12.914Z,101001.20
2022-10-04T20:50:50.812Z,101000.40
2022-10-04T20:53:29.521Z,101013.60
2022-10-04T20:56:33.841Z,101012.20
2022-10-04T20:59:15.666Z,101016.40
2022-10-04T21:02:06.919Z,101010.20
2022-10-04T21:04:44.404Z,101013.20
2022-10-04T21:07:23.534Z,101006.80
2022-10-04T21:10:16.742Z,101010.20
2022-10-04T21:12:51.795Z,101021.40
2022-10-04T21:15:26.638Z,101030.80
2022-10-04T21:18:09.846Z,101026.80
2022-10-04T21:20:57.880Z,101021.40
2022-10-04T21:23:34.648Z,101022.20
2022-10-04T21:26:28.146Z,101022.20
2022-10-04T21:29:02.789Z,101025.80
2022-10-04T21:31:36.661Z,101027.40
2022-10-04T21:34:10.321Z,101037.40
2022-10-04T21:36:44.408Z,101042.60
2022-10-04T21:39:18.748Z,101043.00
2022-10-04T21:41:52.930Z,101050.60
2022-10-04T21:44:28.273Z,101059.80
2022-10-04T21:47:02.527Z,101064.20
2022-10-04T21:49:36.454Z,101067.80
2022-10-04T21:52:10.921Z,101067.40
2022-10-04T21:54:44.851Z,101063.80
2022-10-04T21:57:19.149Z,101061.60
2022-10-04T21:59:53.093Z,101067.40
2022-10-04T22:02:26.941Z,101073.40
2022-10-04T22:05:00.728Z,101082.40
2022-10-04T22:07:34.651Z,101086.60
2022-10-04T22:10:11.361Z,101081.60
2022-10-04T22:12:45.111Z,101080.80
2022-10-04T22:15:19.192Z,101083.60
2022-10-04T22:17:53.101Z,101083.40
2022-10-04T22:20:34.646Z,101083.20
2022-10-04T22:23:16.517Z,101081.60
2022-10-04T22:25:50.397Z,101085.20
2022-10-04T22:28:29.353Z,101080.80
2022-10-04T22:31:11.409Z,101082.20
2022-10-04T22:33:50.647Z,101081.80
2022-10-04T22:36:28.420Z,101079.40
2022-10-04T22:39:11.886Z,101077.80
2022-10-04T22:41:49.193Z,101074.00
2022-10-04T22:44:26.454Z,101078.40
2022-10-04T22:47:02.837Z,101065.40
2022-10-04T22:49:40.304Z,101068.00
2022-10-04T22:52:20.711Z,101064.40
2022-10-04T22:54:58.346Z,101058.60
2022-10-04T22:57:34.731Z,101054.80
2022-10-04T23:00:11.674Z,101051.80
2022-10-04T23:02:45.594Z,101046.60
2022-10-04T23:05:21.944Z,101042.00
2022-10-04T23:07:56.055Z,101032.20
2022-10-04T23:10:30.012Z,101037.80
2022-10-04T23:13:03.669Z,101030.00
2022-10-04T23:15:37.632Z,101021.40
2022-10-04T23:18:19.397Z,101007.60
2022-10-04T23:21:00.669Z,101011.60
2022-10-04T23:23:35.292Z,101018.40
2022-10-04T23:26:23.365Z,101018.20
2022-10-04T23:28:57.184Z,101020.40
2022-10-04T23:31:31.981Z,101021.60
2022-10-04T23:34:15.997Z,101021.60
2022-10-04T23:36:50.470Z,101016.40
2022-10-04T23:39:31.357Z,101004.40
2022-10-04T23:42:16.919Z,100992.80
2022-10-04T23:44:52.824Z,100995.80
2022-10-04T23:47:34.179Z,100990.80
2022-10-04T23:50:23.068Z,100989.20
2022-10-04T23:53:02.557Z,100983.40
2022-10-04T23:55:41.890Z,100979.20
2022-10-04T23:58:21.467Z,100982.20
